sensor_id;sensor_type;location;lat;lon;timestamp;P1;durP1;ratioP1;P2;durP2;ratioP2
73593;SDS011;64760;53.404;23.498;2023-06-04T00:00:37;9.52;;;3.80;;
73593;SDS011;64760;53.404;23.498;2023-06-04T00:03:23;12.00;;;4.07;;
73593;SDS011;64760;53.404;23.498;2023-06-04T00:05:49;9.48;;;4.07;;
73593;SDS011;64760;53.404;23.498;2023-06-04T00:08:15;9.57;;;4.28;;
73593;SDS011;64760;53.404;23.498;2023-06-04T00:10:42;8.63;;;4.00;;
73593;SDS011;64760;53.404;23.498;2023-06-04T00:13:08;8.73;;;3.95;;
73593;SDS011;64760;53.404;23.498;2023-06-04T00:15:34;12.27;;;4.72;;
73593;SDS011;64760;53.404;23.498;2023-06-04T00:18:00;10.77;;;5.40;;
73593;SDS011;64760;53.404;23.498;2023-06-04T00:20:27;8.10;;;4.38;;
73593;SDS011;64760;53.404;23.498;2023-06-04T00:22:53;9.02;;;4.45;;
73593;SDS011;64760;53.404;23.498;2023-06-04T00:25:19;11.85;;;4.55;;
73593;SDS011;64760;53.404;23.498;2023-06-04T00:27:45;13.18;;;4.38;;
73593;SDS011;64760;53.404;23.498;2023-06-04T00:30:12;6.57;;;3.67;;
73593;SDS011;64760;53.404;23.498;2023-06-04T00:32:38;8.05;;;3.78;;
73593;SDS011;64760;53.404;23.498;2023-06-04T00:35:05;7.22;;;3.55;;
73593;SDS011;64760;53.404;23.498;2023-06-04T00:37:32;8.50;;;4.25;;
73593;SDS011;64760;53.404;23.498;2023-06-04T00:39:59;7.68;;;3.50;;
73593;SDS011;64760;53.404;23.498;2023-06-04T00:42:25;7.55;;;3.60;;
73593;SDS011;64760;53.404;23.498;2023-06-04T00:44:51;8.55;;;3.95;;
73593;SDS011;64760;53.404;23.498;2023-06-04T00:47:18;8.20;;;4.03;;
73593;SDS011;64760;53.404;23.498;2023-06-04T00:49:46;7.47;;;4.00;;
73593;SDS011;64760;53.404;23.498;2023-06-04T00:52:12;10.23;;;4.22;;
73593;SDS011;64760;53.404;23.498;2023-06-04T00:54:40;10.35;;;4.35;;
73593;SDS011;64760;53.404;23.498;2023-06-04T00:57:07;8.43;;;4.10;;
73593;SDS011;64760;53.404;23.498;2023-06-04T01:02:11;10.30;;;3.53;;
73593;SDS011;64760;53.404;23.498;2023-06-04T01:07:20;7.03;;;3.28;;
73593;SDS011;64760;53.404;23.498;2023-06-04T01:09:49;9.00;;;3.65;;
73593;SDS011;64760;53.404;23.498;2023-06-04T01:12:15;8.93;;;3.88;;
73593;SDS011;64760;53.404;23.498;2023-06-04T01:14:41;13.07;;;4.38;;
73593;SDS011;64760;53.404;23.498;2023-06-04T01:17:13;6.93;;;3.45;;
73593;SDS011;64760;53.404;23.498;2023-06-04T01:22:38;8.57;;;3.72;;
73593;SDS011;64760;53.404;23.498;2023-06-04T01:25:14;8.57;;;3.95;;
73593;SDS011;64760;53.404;23.498;2023-06-04T01:27:46;8.88;;;3.95;;
73593;SDS011;64760;53.404;23.498;2023-06-04T01:30:16;11.05;;;3.90;;
73593;SDS011;64760;53.404;23.498;2023-06-04T01:32:43;7.90;;;3.63;;
73593;SDS011;64760;53.404;23.498;2023-06-04T01:35:12;9.50;;;3.80;;
73593;SDS011;64760;53.404;23.498;2023-06-04T01:37:38;8.52;;;3.88;;
73593;SDS011;64760;53.404;23.498;2023-06-04T01:40:05;9.02;;;3.42;;
73593;SDS011;64760;53.404;23.498;2023-06-04T01:42:34;7.65;;;3.28;;
73593;SDS011;64760;53.404;23.498;2023-06-04T01:45:01;9.32;;;2.88;;
73593;SDS011;64760;53.404;23.498;2023-06-04T01:47:28;5.38;;;2.80;;
73593;SDS011;64760;53.404;23.498;2023-06-04T01:49:54;8.95;;;3.40;;
73593;SDS011;64760;53.404;23.498;2023-06-04T01:52:20;7.93;;;2.90;;
73593;SDS011;64760;53.404;23.498;2023-06-04T01:54:47;8.27;;;3.80;;
73593;SDS011;64760;53.404;23.498;2023-06-04T01:57:18;8.23;;;3.78;;
73593;SDS011;64760;53.404;23.498;2023-06-04T02:02:12;4.97;;;2.92;;
73593;SDS011;64760;53.404;23.498;2023-06-04T02:04:39;7.00;;;2.90;;
73593;SDS011;64760;53.404;23.498;2023-06-04T02:07:08;8.20;;;3.88;;
73593;SDS011;64760;53.404;23.498;2023-06-04T02:09:36;6.25;;;3.22;;
73593;SDS011;64760;53.404;23.498;2023-06-04T02:12:02;6.78;;;3.53;;
73593;SDS011;64760;53.404;23.498;2023-06-04T02:14:29;7.10;;;3.63;;
73593;SDS011;64760;53.404;23.498;2023-06-04T02:16:55;6.50;;;3.28;;
73593;SDS011;64760;53.404;23.498;2023-06-04T02:19:24;7.72;;;3.67;;
73593;SDS011;64760;53.404;23.498;2023-06-04T02:21:51;7.72;;;3.53;;
73593;SDS011;64760;53.404;23.498;2023-06-04T02:24:18;10.63;;;4.20;;
73593;SDS011;64760;53.404;23.498;2023-06-04T02:26:45;6.60;;;3.60;;
73593;SDS011;64760;53.404;23.498;2023-06-04T02:29:12;6.85;;;3.65;;
73593;SDS011;64760;53.404;23.498;2023-06-04T02:31:39;9.55;;;3.75;;
73593;SDS011;64760;53.404;23.498;2023-06-04T02:34:06;8.25;;;3.80;;
73593;SDS011;64760;53.404;23.498;2023-06-04T02:36:32;7.28;;;3.80;;
73593;SDS011;64760;53.404;23.498;2023-06-04T02:38:58;8.93;;;4.32;;
73593;SDS011;64760;53.404;23.498;2023-06-04T02:41:24;12.77;;;3.53;;
73593;SDS011;64760;53.404;23.498;2023-06-04T02:43:51;9.88;;;3.72;;
73593;SDS011;64760;53.404;23.498;2023-06-04T02:46:17;6.00;;;3.47;;
73593;SDS011;64760;53.404;23.498;2023-06-04T02:48:43;9.20;;;3.53;;
73593;SDS011;64760;53.404;23.498;2023-06-04T02:51:10;7.57;;;3.75;;
73593;SDS011;64760;53.404;23.498;2023-06-04T02:53:37;9.45;;;3.55;;
73593;SDS011;64760;53.404;23.498;2023-06-04T02:56:03;5.82;;;3.15;;
73593;SDS011;64760;53.404;23.498;2023-06-04T02:58:30;6.22;;;3.13;;
73593;SDS011;64760;53.404;23.498;2023-06-04T03:00:57;6.90;;;3.20;;
73593;SDS011;64760;53.404;23.498;2023-06-04T03:03:23;5.57;;;2.85;;
73593;SDS011;64760;53.404;23.498;2023-06-04T03:05:49;7.57;;;3.00;;
73593;SDS011;64760;53.404;23.498;2023-06-04T03:08:16;11.02;;;3.75;;
73593;SDS011;64760;53.404;23.498;2023-06-04T03:10:42;7.00;;;3.15;;
73593;SDS011;64760;53.404;23.498;2023-06-04T03:13:08;6.97;;;3.78;;
73593;SDS011;64760;53.404;23.498;2023-06-04T03:15:34;8.73;;;3.70;;
73593;SDS011;64760;53.404;23.498;2023-06-04T03:18:05;7.15;;;2.92;;
73593;SDS011;64760;53.404;23.498;2023-06-04T03:20:31;7.13;;;3.70;;
73593;SDS011;64760;53.404;23.498;2023-06-04T03:23:01;7.10;;;3.40;;
73593;SDS011;64760;53.404;23.498;2023-06-04T03:25:27;7.07;;;3.47;;
73593;SDS011;64760;53.404;23.498;2023-06-04T03:27:53;7.07;;;3.47;;
73593;SDS011;64760;53.404;23.498;2023-06-04T03:30:20;7.25;;;3.67;;
73593;SDS011;64760;53.404;23.498;2023-06-04T03:32:55;7.22;;;3.40;;
73593;SDS011;64760;53.404;23.498;2023-06-04T03:35:21;6.70;;;3.08;;
73593;SDS011;64760;53.404;23.498;2023-06-04T03:37:48;6.43;;;3.03;;
73593;SDS011;64760;53.404;23.498;2023-06-04T03:40:14;6.70;;;3.40;;
73593;SDS011;64760;53.404;23.498;2023-06-04T03:42:43;7.30;;;3.63;;
73593;SDS011;64760;53.404;23.498;2023-06-04T03:45:10;6.10;;;3.33;;
73593;SDS011;64760;53.404;23.498;2023-06-04T03:47:38;6.32;;;3.17;;
73593;SDS011;64760;53.404;23.498;2023-06-04T03:50:05;5.20;;;2.90;;
73593;SDS011;64760;53.404;23.498;2023-06-04T03:52:32;10.38;;;4.97;;
73593;SDS011;64760;53.404;23.498;2023-06-04T03:55:00;9.15;;;3.80;;
73593;SDS011;64760;53.404;23.498;2023-06-04T03:57:28;7.05;;;4.05;;
73593;SDS011;64760;53.404;23.498;2023-06-04T03:59:55;10.65;;;5.30;;
73593;SDS011;64760;53.404;23.498;2023-06-04T04:02:21;8.02;;;4.63;;
73593;SDS011;64760;53.404;23.498;2023-06-04T04:04:47;8.82;;;4.35;;
73593;SDS011;64760;53.404;23.498;2023-06-04T04:07:14;6.45;;;3.28;;
73593;SDS011;64760;53.404;23.498;2023-06-04T04:09:41;7.15;;;3.53;;
73593;SDS011;64760;53.404;23.498;2023-06-04T04:12:07;6.70;;;3.17;;
73593;SDS011;64760;53.404;23.498;2023-06-04T04:14:34;6.68;;;3.58;;
73593;SDS011;64760;53.404;23.498;2023-06-04T04:17:02;5.55;;;3.50;;
73593;SDS011;64760;53.404;23.498;2023-06-04T04:19:30;4.65;;;3.03;;
73593;SDS011;64760;53.404;23.498;2023-06-04T04:21:57;7.10;;;2.60;;
73593;SDS011;64760;53.404;23.498;2023-06-04T04:26:51;7.82;;;2.40;;
73593;SDS011;64760;53.404;23.498;2023-06-04T04:29:21;3.97;;;2.30;;
73593;SDS011;64760;53.404;23.498;2023-06-04T04:31:51;6.45;;;2.20;;
73593;SDS011;64760;53.404;23.498;2023-06-04T04:34:20;6.10;;;2.33;;
73593;SDS011;64760;53.404;23.498;2023-06-04T04:36:48;4.05;;;2.03;;
73593;SDS011;64760;53.404;23.498;2023-06-04T04:39:24;5.93;;;2.50;;
73593;SDS011;64760;53.404;23.498;2023-06-04T04:41:53;3.88;;;1.83;;
73593;SDS011;64760;53.404;23.498;2023-06-04T04:46:48;2.90;;;1.75;;
73593;SDS011;64760;53.404;23.498;2023-06-04T04:49:14;3.28;;;1.88;;
73593;SDS011;64760;53.404;23.498;2023-06-04T04:51:41;4.55;;;1.95;;
73593;SDS011;64760;53.404;23.498;2023-06-04T04:54:07;3.33;;;1.70;;
73593;SDS011;64760;53.404;23.498;2023-06-04T04:56:34;5.22;;;1.83;;
73593;SDS011;64760;53.404;23.498;2023-06-04T04:59:02;2.80;;;1.30;;
73593;SDS011;64760;53.404;23.498;2023-06-04T05:01:29;4.05;;;1.20;;
73593;SDS011;64760;53.404;23.498;2023-06-04T05:03:55;3.72;;;1.60;;
73593;SDS011;64760;53.404;23.498;2023-06-04T05:06:23;3.22;;;1.30;;
73593;SDS011;64760;53.404;23.498;2023-06-04T05:08:49;3.50;;;1.60;;
73593;SDS011;64760;53.404;23.498;2023-06-04T05:13:44;2.78;;;1.38;;
73593;SDS011;64760;53.404;23.498;2023-06-04T05:16:12;3.05;;;1.42;;
73593;SDS011;64760;53.404;23.498;2023-06-04T05:18:41;2.20;;;1.30;;
73593;SDS011;64760;53.404;23.498;2023-06-04T05:21:09;3.75;;;1.50;;
73593;SDS011;64760;53.404;23.498;2023-06-04T05:23:40;3.15;;;1.10;;
73593;SDS011;64760;53.404;23.498;2023-06-04T05:26:08;2.40;;;1.30;;
73593;SDS011;64760;53.404;23.498;2023-06-04T05:28:34;2.40;;;1.38;;
73593;SDS011;64760;53.404;23.498;2023-06-04T05:31:02;3.60;;;1.50;;
73593;SDS011;64760;53.404;23.498;2023-06-04T05:33:32;2.25;;;1.17;;
73593;SDS011;64760;53.404;23.498;2023-06-04T05:36:03;4.30;;;1.70;;
73593;SDS011;64760;53.404;23.498;2023-06-04T05:38:35;2.70;;;1.17;;
73593;SDS011;64760;53.404;23.498;2023-06-04T05:41:06;4.05;;;1.40;;
73593;SDS011;64760;53.404;23.498;2023-06-04T05:43:35;2.83;;;1.48;;
73593;SDS011;64760;53.404;23.498;2023-06-04T05:46:02;3.90;;;1.50;;
73593;SDS011;64760;53.404;23.498;2023-06-04T05:48:28;2.65;;;1.23;;
73593;SDS011;64760;53.404;23.498;2023-06-04T05:50:55;3.45;;;1.40;;
73593;SDS011;64760;53.404;23.498;2023-06-04T05:53:21;2.08;;;1.23;;
73593;SDS011;64760;53.404;23.498;2023-06-04T05:55:49;0.93;;;0.80;;
73593;SDS011;64760;53.404;23.498;2023-06-04T05:58:15;3.15;;;0.93;;
73593;SDS011;64760;53.404;23.498;2023-06-04T06:00:41;1.75;;;1.05;;
73593;SDS011;64760;53.404;23.498;2023-06-04T06:03:08;2.85;;;1.13;;
73593;SDS011;64760;53.404;23.498;2023-06-04T06:05:42;1.25;;;0.90;;
73593;SDS011;64760;53.404;23.498;2023-06-04T06:08:09;1.63;;;0.88;;
73593;SDS011;64760;53.404;23.498;2023-06-04T06:10:35;3.58;;;1.15;;
73593;SDS011;64760;53.404;23.498;2023-06-04T06:13:02;2.55;;;0.90;;
73593;SDS011;64760;53.404;23.498;2023-06-04T06:15:28;1.98;;;1.02;;
73593;SDS011;64760;53.404;23.498;2023-06-04T06:17:55;1.75;;;0.95;;
73593;SDS011;64760;53.404;23.498;2023-06-04T06:20:21;2.45;;;1.10;;
73593;SDS011;64760;53.404;23.498;2023-06-04T06:22:48;1.55;;;0.80;;
73593;SDS011;64760;53.404;23.498;2023-06-04T06:25:16;2.95;;;0.70;;
73593;SDS011;64760;53.404;23.498;2023-06-04T06:27:49;3.13;;;0.98;;
73593;SDS011;64760;53.404;23.498;2023-06-04T06:30:17;2.38;;;1.05;;
73593;SDS011;64760;53.404;23.498;2023-06-04T06:32:44;3.20;;;1.10;;
73593;SDS011;64760;53.404;23.498;2023-06-04T06:37:37;1.90;;;0.88;;
73593;SDS011;64760;53.404;23.498;2023-06-04T06:40:08;1.60;;;1.10;;
73593;SDS011;64760;53.404;23.498;2023-06-04T06:42:35;4.00;;;1.65;;
73593;SDS011;64760;53.404;23.498;2023-06-04T06:45:02;2.75;;;1.50;;
73593;SDS011;64760;53.404;23.498;2023-06-04T06:47:28;2.03;;;1.13;;
73593;SDS011;64760;53.404;23.498;2023-06-04T06:49:55;1.70;;;0.75;;
73593;SDS011;64760;53.404;23.498;2023-06-04T06:52:21;2.20;;;1.10;;
73593;SDS011;64760;53.404;23.498;2023-06-04T06:54:47;2.17;;;1.00;;
73593;SDS011;64760;53.404;23.498;2023-06-04T06:57:14;3.78;;;2.25;;
73593;SDS011;64760;53.404;23.498;2023-06-04T06:59:41;1.58;;;0.80;;
73593;SDS011;64760;53.404;23.498;2023-06-04T07:02:07;3.55;;;1.42;;
73593;SDS011;64760;53.404;23.498;2023-06-04T07:04:33;2.10;;;1.10;;
73593;SDS011;64760;53.404;23.498;2023-06-04T07:07:00;3.10;;;1.35;;
73593;SDS011;64760;53.404;23.498;2023-06-04T07:09:26;2.13;;;0.98;;
73593;SDS011;64760;53.404;23.498;2023-06-04T07:11:53;1.80;;;1.10;;
73593;SDS011;64760;53.404;23.498;2023-06-04T07:14:20;1.77;;;0.82;;
73593;SDS011;64760;53.404;23.498;2023-06-04T07:16:47;2.80;;;0.90;;
73593;SDS011;64760;53.404;23.498;2023-06-04T07:19:13;5.20;;;2.25;;
73593;SDS011;64760;53.404;23.498;2023-06-04T07:21:39;8.70;;;3.45;;
73593;SDS011;64760;53.404;23.498;2023-06-04T07:24:06;12.25;;;4.50;;
73593;SDS011;64760;53.404;23.498;2023-06-04T07:26:32;6.97;;;3.70;;
73593;SDS011;64760;53.404;23.498;2023-06-04T07:28:59;6.53;;;3.03;;
73593;SDS011;64760;53.404;23.498;2023-06-04T07:31:26;10.30;;;4.88;;
73593;SDS011;64760;53.404;23.498;2023-06-04T07:33:52;5.78;;;3.30;;
73593;SDS011;64760;53.404;23.498;2023-06-04T07:36:18;3.95;;;1.50;;
73593;SDS011;64760;53.404;23.498;2023-06-04T07:38:46;3.40;;;1.27;;
73593;SDS011;64760;53.404;23.498;2023-06-04T07:41:12;1.70;;;0.88;;
73593;SDS011;64760;53.404;23.498;2023-06-04T07:46:06;1.30;;;0.70;;
73593;SDS011;64760;53.404;23.498;2023-06-04T07:48:32;0.57;;;0.57;;
73593;SDS011;64760;53.404;23.498;2023-06-04T07:51:02;2.20;;;0.70;;
73593;SDS011;64760;53.404;23.498;2023-06-04T07:53:30;2.63;;;0.88;;
73593;SDS011;64760;53.404;23.498;2023-06-04T07:55:56;2.55;;;0.80;;
73593;SDS011;64760;53.404;23.498;2023-06-04T07:58:23;3.08;;;0.90;;
73593;SDS011;64760;53.404;23.498;2023-06-04T08:00:49;1.27;;;0.80;;
73593;SDS011;64760;53.404;23.498;2023-06-04T08:03:17;1.55;;;0.50;;
73593;SDS011;64760;53.404;23.498;2023-06-04T08:05:44;1.88;;;0.60;;
73593;SDS011;64760;53.404;23.498;2023-06-04T08:08:11;3.50;;;1.20;;
73593;SDS011;64760;53.404;23.498;2023-06-04T08:10:38;1.92;;;1.02;;
73593;SDS011;64760;53.404;23.498;2023-06-04T08:13:06;3.75;;;2.28;;
73593;SDS011;64760;53.404;23.498;2023-06-04T08:15:32;4.63;;;1.20;;
73593;SDS011;64760;53.404;23.498;2023-06-04T08:18:18;4.43;;;2.15;;
73593;SDS011;64760;53.404;23.498;2023-06-04T08:21:05;3.97;;;1.63;;
73593;SDS011;64760;53.404;23.498;2023-06-04T08:23:41;2.58;;;1.17;;
73593;SDS011;64760;53.404;23.498;2023-06-04T08:26:27;2.65;;;1.08;;
73593;SDS011;64760;53.404;23.498;2023-06-04T08:29:04;1.40;;;0.77;;
73593;SDS011;64760;53.404;23.498;2023-06-04T08:31:36;1.98;;;0.98;;
73593;SDS011;64760;53.404;23.498;2023-06-04T08:34:19;1.63;;;0.70;;
73593;SDS011;64760;53.404;23.498;2023-06-04T08:36:46;1.55;;;1.00;;
73593;SDS011;64760;53.404;23.498;2023-06-04T08:39:12;1.75;;;0.95;;
73593;SDS011;64760;53.404;23.498;2023-06-04T08:44:42;3.05;;;0.98;;
73593;SDS011;64760;53.404;23.498;2023-06-04T08:47:09;2.45;;;1.30;;
73593;SDS011;64760;53.404;23.498;2023-06-04T08:49:40;1.55;;;0.70;;
73593;SDS011;64760;53.404;23.498;2023-06-04T08:52:07;1.45;;;0.73;;
73593;SDS011;64760;53.404;23.498;2023-06-04T08:54:34;1.75;;;0.77;;
73593;SDS011;64760;53.404;23.498;2023-06-04T08:57:00;1.08;;;0.65;;
73593;SDS011;64760;53.404;23.498;2023-06-04T08:59:28;1.23;;;0.80;;
73593;SDS011;64760;53.404;23.498;2023-06-04T09:01:54;2.00;;;0.80;;
73593;SDS011;64760;53.404;23.498;2023-06-04T09:04:22;0.70;;;0.50;;
73593;SDS011;64760;53.404;23.498;2023-06-04T09:06:48;1.95;;;0.80;;
73593;SDS011;64760;53.404;23.498;2023-06-04T09:09:15;2.45;;;1.30;;
73593;SDS011;64760;53.404;23.498;2023-06-04T09:11:49;1.95;;;1.02;;
73593;SDS011;64760;53.404;23.498;2023-06-04T09:14:18;1.45;;;0.77;;
73593;SDS011;64760;53.404;23.498;2023-06-04T09:16:51;1.65;;;0.90;;
73593;SDS011;64760;53.404;23.498;2023-06-04T09:19:21;1.42;;;0.80;;
73593;SDS011;64760;53.404;23.498;2023-06-04T09:21:55;1.33;;;0.68;;
73593;SDS011;64760;53.404;23.498;2023-06-04T09:24:24;1.52;;;1.00;;
73593;SDS011;64760;53.404;23.498;2023-06-04T09:26:51;2.42;;;0.90;;
73593;SDS011;64760;53.404;23.498;2023-06-04T09:29:18;4.45;;;1.00;;
73593;SDS011;64760;53.404;23.498;2023-06-04T09:31:45;2.05;;;0.95;;
73593;SDS011;64760;53.404;23.498;2023-06-04T09:34:13;2.03;;;0.73;;
73593;SDS011;64760;53.404;23.498;2023-06-04T09:36:40;2.45;;;0.85;;
73593;SDS011;64760;53.404;23.498;2023-06-04T09:39:14;3.72;;;0.90;;
73593;SDS011;64760;53.404;23.498;2023-06-04T09:41:42;2.05;;;0.93;;
73593;SDS011;64760;53.404;23.498;2023-06-04T09:44:11;1.67;;;0.70;;
73593;SDS011;64760;53.404;23.498;2023-06-04T09:46:37;3.35;;;1.40;;
73593;SDS011;64760;53.404;23.498;2023-06-04T09:49:04;2.30;;;1.20;;
73593;SDS011;64760;53.404;23.498;2023-06-04T09:51:31;1.75;;;0.80;;
73593;SDS011;64760;53.404;23.498;2023-06-04T09:54:02;1.52;;;0.90;;
73593;SDS011;64760;53.404;23.498;2023-06-04T09:56:29;1.65;;;0.80;;
73593;SDS011;64760;53.404;23.498;2023-06-04T09:58:59;1.30;;;0.60;;
73593;SDS011;64760;53.404;23.498;2023-06-04T10:01:29;2.45;;;0.80;;
73593;SDS011;64760;53.404;23.498;2023-06-04T10:03:57;6.93;;;3.10;;
73593;SDS011;64760;53.404;23.498;2023-06-04T10:06:28;4.13;;;1.35;;
73593;SDS011;64760;53.404;23.498;2023-06-04T10:09:04;2.15;;;0.90;;
73593;SDS011;64760;53.404;23.498;2023-06-04T10:11:34;5.82;;;1.20;;
73593;SDS011;64760;53.404;23.498;2023-06-04T10:14:06;2.83;;;1.45;;
73593;SDS011;64760;53.404;23.498;2023-06-04T10:16:51;2.58;;;1.00;;
73593;SDS011;64760;53.404;23.498;2023-06-04T10:19:20;4.68;;;1.20;;
73593;SDS011;64760;53.404;23.498;2023-06-04T10:21:46;1.95;;;0.82;;
73593;SDS011;64760;53.404;23.498;2023-06-04T10:24:13;1.45;;;0.70;;
73593;SDS011;64760;53.404;23.498;2023-06-04T10:26:41;3.03;;;1.40;;
73593;SDS011;64760;53.404;23.498;2023-06-04T10:31:34;1.67;;;0.70;;
73593;SDS011;64760;53.404;23.498;2023-06-04T10:34:03;3.83;;;1.00;;
73593;SDS011;64760;53.404;23.498;2023-06-04T10:36:29;1.67;;;0.80;;
73593;SDS011;64760;53.404;23.498;2023-06-04T10:38:56;4.55;;;1.08;;
73593;SDS011;64760;53.404;23.498;2023-06-04T10:41:22;2.45;;;1.00;;
73593;SDS011;64760;53.404;23.498;2023-06-04T10:43:51;2.00;;;1.00;;
73593;SDS011;64760;53.404;23.498;2023-06-04T10:46:36;2.63;;;1.10;;
73593;SDS011;64760;53.404;23.498;2023-06-04T10:49:04;1.88;;;0.95;;
73593;SDS011;64760;53.404;23.498;2023-06-04T10:51:31;3.13;;;0.90;;
73593;SDS011;64760;53.404;23.498;2023-06-04T10:53:59;2.33;;;1.10;;
73593;SDS011;64760;53.404;23.498;2023-06-04T10:56:27;1.90;;;1.00;;
73593;SDS011;64760;53.404;23.498;2023-06-04T10:59:13;1.30;;;0.73;;
73593;SDS011;64760;53.404;23.498;2023-06-04T11:01:41;3.50;;;1.50;;
73593;SDS011;64760;53.404;23.498;2023-06-04T11:04:17;3.33;;;1.67;;
73593;SDS011;64760;53.404;23.498;2023-06-04T11:06:45;3.00;;;1.30;;
73593;SDS011;64760;53.404;23.498;2023-06-04T11:09:12;2.00;;;0.90;;
73593;SDS011;64760;53.404;23.498;2023-06-04T11:11:44;2.65;;;1.20;;
73593;SDS011;64760;53.404;23.498;2023-06-04T11:14:21;3.90;;;1.90;;
73593;SDS011;64760;53.404;23.498;2023-06-04T11:16:47;2.28;;;1.35;;
73593;SDS011;64760;53.404;23.498;2023-06-04T11:19:14;2.33;;;1.35;;
73593;SDS011;64760;53.404;23.498;2023-06-04T11:21:40;3.05;;;1.20;;
73593;SDS011;64760;53.404;23.498;2023-06-04T11:24:07;3.22;;;0.93;;
73593;SDS011;64760;53.404;23.498;2023-06-04T11:26:33;3.53;;;0.93;;
73593;SDS011;64760;53.404;23.498;2023-06-04T11:29:01;0.82;;;0.77;;
73593;SDS011;64760;53.404;23.498;2023-06-04T11:31:41;1.73;;;0.88;;
73593;SDS011;64760;53.404;23.498;2023-06-04T11:34:09;2.72;;;1.15;;
73593;SDS011;64760;53.404;23.498;2023-06-04T11:36:37;1.63;;;0.77;;
73593;SDS011;64760;53.404;23.498;2023-06-04T11:39:04;1.65;;;0.80;;
73593;SDS011;64760;53.404;23.498;2023-06-04T11:41:34;1.25;;;0.63;;
73593;SDS011;64760;53.404;23.498;2023-06-04T11:44:02;1.23;;;0.75;;
73593;SDS011;64760;53.404;23.498;2023-06-04T11:46:32;2.63;;;1.10;;
73593;SDS011;64760;53.404;23.498;2023-06-04T11:48:59;1.73;;;0.80;;
73593;SDS011;64760;53.404;23.498;2023-06-04T11:51:26;1.70;;;0.80;;
73593;SDS011;64760;53.404;23.498;2023-06-04T11:53:52;1.73;;;0.80;;
73593;SDS011;64760;53.404;23.498;2023-06-04T11:56:19;1.52;;;0.80;;
73593;SDS011;64760;53.404;23.498;2023-06-04T11:58:46;1.33;;;0.75;;
73593;SDS011;64760;53.404;23.498;2023-06-04T12:01:13;1.33;;;0.80;;
73593;SDS011;64760;53.404;23.498;2023-06-04T12:03:41;1.83;;;0.90;;
73593;SDS011;64760;53.404;23.498;2023-06-04T12:06:11;2.92;;;1.23;;
73593;SDS011;64760;53.404;23.498;2023-06-04T12:13:56;1.92;;;1.10;;
73593;SDS011;64760;53.404;23.498;2023-06-04T12:16:23;2.45;;;1.08;;
73593;SDS011;64760;53.404;23.498;2023-06-04T12:18:50;1.70;;;0.93;;
73593;SDS011;64760;53.404;23.498;2023-06-04T12:21:25;3.22;;;1.30;;
73593;SDS011;64760;53.404;23.498;2023-06-04T12:24:05;2.33;;;1.23;;
73593;SDS011;64760;53.404;23.498;2023-06-04T12:26:36;3.92;;;1.05;;
73593;SDS011;64760;53.404;23.498;2023-06-04T12:29:10;2.75;;;1.20;;
73593;SDS011;64760;53.404;23.498;2023-06-04T12:31:41;2.03;;;1.02;;
73593;SDS011;64760;53.404;23.498;2023-06-04T12:34:09;2.00;;;1.02;;
73593;SDS011;64760;53.404;23.498;2023-06-04T12:36:37;2.15;;;0.90;;
73593;SDS011;64760;53.404;23.498;2023-06-04T12:41:31;3.35;;;1.70;;
73593;SDS011;64760;53.404;23.498;2023-06-04T12:43:59;1.90;;;1.17;;
73593;SDS011;64760;53.404;23.498;2023-06-04T12:46:26;4.40;;;1.40;;
73593;SDS011;64760;53.404;23.498;2023-06-04T12:48:54;2.60;;;1.23;;
73593;SDS011;64760;53.404;23.498;2023-06-04T12:51:20;1.98;;;1.00;;
73593;SDS011;64760;53.404;23.498;2023-06-04T12:53:47;1.55;;;0.80;;
73593;SDS011;64760;53.404;23.498;2023-06-04T12:56:13;1.70;;;0.88;;
73593;SDS011;64760;53.404;23.498;2023-06-04T12:58:40;1.08;;;0.57;;
73593;SDS011;64760;53.404;23.498;2023-06-04T13:01:06;1.17;;;0.70;;
73593;SDS011;64760;53.404;23.498;2023-06-04T13:03:33;1.58;;;0.98;;
73593;SDS011;64760;53.404;23.498;2023-06-04T13:06:01;1.23;;;0.80;;
73593;SDS011;64760;53.404;23.498;2023-06-04T13:08:28;2.28;;;0.98;;
73593;SDS011;64760;53.404;23.498;2023-06-04T13:10:55;2.20;;;0.98;;
73593;SDS011;64760;53.404;23.498;2023-06-04T13:13:21;3.58;;;1.00;;
73593;SDS011;64760;53.404;23.498;2023-06-04T13:15:49;2.40;;;1.10;;
73593;SDS011;64760;53.404;23.498;2023-06-04T13:18:15;9.15;;;4.63;;
73593;SDS011;64760;53.404;23.498;2023-06-04T13:20:42;2.33;;;1.40;;
73593;SDS011;64760;53.404;23.498;2023-06-04T13:23:08;3.33;;;1.83;;
73593;SDS011;64760;53.404;23.498;2023-06-04T13:25:35;8.15;;;3.67;;
73593;SDS011;64760;53.404;23.498;2023-06-04T13:28:02;3.97;;;1.25;;
73593;SDS011;64760;53.404;23.498;2023-06-04T13:30:29;1.20;;;0.63;;
73593;SDS011;64760;53.404;23.498;2023-06-04T13:32:56;2.15;;;0.90;;
73593;SDS011;64760;53.404;23.498;2023-06-04T13:35:24;2.08;;;0.93;;
73593;SDS011;64760;53.404;23.498;2023-06-04T13:40:17;1.67;;;0.90;;
73593;SDS011;64760;53.404;23.498;2023-06-04T13:42:43;2.70;;;1.48;;
73593;SDS011;64760;53.404;23.498;2023-06-04T13:45:11;0.60;;;0.60;;
73593;SDS011;64760;53.404;23.498;2023-06-04T13:47:38;1.10;;;0.70;;
73593;SDS011;64760;53.404;23.498;2023-06-04T13:50:04;1.92;;;0.80;;
73593;SDS011;64760;53.404;23.498;2023-06-04T13:52:31;2.60;;;1.10;;
73593;SDS011;64760;53.404;23.498;2023-06-04T13:54:58;2.58;;;0.80;;
73593;SDS011;64760;53.404;23.498;2023-06-04T13:57:25;2.85;;;1.20;;
73593;SDS011;64760;53.404;23.498;2023-06-04T14:02:18;3.22;;;1.10;;
73593;SDS011;64760;53.404;23.498;2023-06-04T14:04:44;1.38;;;1.00;;
73593;SDS011;64760;53.404;23.498;2023-06-04T14:07:10;3.58;;;1.10;;
73593;SDS011;64760;53.404;23.498;2023-06-04T14:09:37;4.28;;;1.20;;
73593;SDS011;64760;53.404;23.498;2023-06-04T14:12:04;1.98;;;1.00;;
73593;SDS011;64760;53.404;23.498;2023-06-04T14:14:31;3.15;;;1.50;;
73593;SDS011;64760;53.404;23.498;2023-06-04T14:17:03;2.83;;;1.00;;
73593;SDS011;64760;53.404;23.498;2023-06-04T14:21:56;1.17;;;0.90;;
73593;SDS011;64760;53.404;23.498;2023-06-04T14:24:22;2.78;;;1.30;;
73593;SDS011;64760;53.404;23.498;2023-06-04T14:26:49;2.22;;;1.30;;
73593;SDS011;64760;53.404;23.498;2023-06-04T14:29:15;2.58;;;1.45;;
73593;SDS011;64760;53.404;23.498;2023-06-04T14:31:42;3.30;;;1.40;;
73593;SDS011;64760;53.404;23.498;2023-06-04T14:34:09;1.30;;;0.80;;
73593;SDS011;64760;53.404;23.498;2023-06-04T14:36:36;2.15;;;1.00;;
73593;SDS011;64760;53.404;23.498;2023-06-04T14:39:02;2.03;;;1.02;;
73593;SDS011;64760;53.404;23.498;2023-06-04T14:43:56;2.55;;;1.25;;
73593;SDS011;64760;53.404;23.498;2023-06-04T14:46:23;1.98;;;1.20;;
73593;SDS011;64760;53.404;23.498;2023-06-04T14:48:50;2.22;;;0.93;;
73593;SDS011;64760;53.404;23.498;2023-06-04T14:51:16;2.30;;;0.82;;
73593;SDS011;64760;53.404;23.498;2023-06-04T14:53:42;2.00;;;1.00;;
73593;SDS011;64760;53.404;23.498;2023-06-04T14:56:09;2.83;;;1.13;;
73593;SDS011;64760;53.404;23.498;2023-06-04T14:58:35;2.65;;;1.10;;
73593;SDS011;64760;53.404;23.498;2023-06-04T15:01:01;1.70;;;1.00;;
73593;SDS011;64760;53.404;23.498;2023-06-04T15:03:29;4.28;;;1.05;;
73593;SDS011;64760;53.404;23.498;2023-06-04T15:05:56;3.45;;;1.10;;
73593;SDS011;64760;53.404;23.498;2023-06-04T15:08:22;1.85;;;0.90;;
73593;SDS011;64760;53.404;23.498;2023-06-04T15:10:49;1.80;;;0.90;;
73593;SDS011;64760;53.404;23.498;2023-06-04T15:13:16;1.75;;;1.10;;
73593;SDS011;64760;53.404;23.498;2023-06-04T15:15:43;2.08;;;1.10;;
73593;SDS011;64760;53.404;23.498;2023-06-04T15:18:09;1.95;;;0.90;;
73593;SDS011;64760;53.404;23.498;2023-06-04T15:20:35;1.77;;;1.02;;
73593;SDS011;64760;53.404;23.498;2023-06-04T15:23:01;1.67;;;0.88;;